Time;durP1;ratioP1;P1;durP2;ratioP2;P2;SDS_P1;SDS_P2;PMS_P1;PMS_P2;Temp;Humidity;BMP_temperature;BMP_pressure;BME280_temperature;BME280_humidity;BME280_pressure;Samples;Min_cycle;Max_cycle;Signal;HPM_P1;HPM_P2
2022/05/04 00:01:27;;;;;;;6.65;1.40;;;;;;;;;;5039292;28;20120;-66
2022/05/04 00:03:54;;;;;;;6.80;1.20;;;;;;;;;;5037595;28;20045;-67
2022/05/04 00:06:22;;;;;;;4.38;1.23;;;;;;;;;;5038123;28;20501;-65
2022/05/04 00:08:49;;;;;;;5.30;1.48;;;;;;;;;;5038778;28;20409;-65
2022/05/04 00:11:15;;;;;;;6.18;1.50;;;;;;;;;;5038903;28;20041;-64
2022/05/04 00:13:42;;;;;;;4.18;1.13;;;;;;;;;;5019633;28;20033;-65
2022/05/04 00:16:09;;;;;;;6.47;1.20;;;;;;;;;;5039265;28;20041;-64
2022/05/04 00:18:36;;;;;;;4.07;1.10;;;;;;;;;;5039164;28;20029;-65
2022/05/04 00:21:02;;;;;;;5.90;1.30;;;;;;;;;;5038568;28;20064;-64
2022/05/04 00:23:29;;;;;;;5.50;2.42;;;;;;;;;;5037367;28;20063;-65
2022/05/04 00:25:56;;;;;;;7.50;3.45;;;;;;;;;;5038462;28;20053;-65
2022/05/04 00:28:22;;;;;;;13.00;1.92;;;;;;;;;;5038211;28;20855;-66
2022/05/04 00:30:49;;;;;;;5.43;1.60;;;;;;;;;;5039381;28;20039;-64
2022/05/04 00:33:16;;;;;;;7.40;1.23;;;;;;;;;;5038562;28;20098;-66
2022/05/04 00:35:43;;;;;;;3.92;1.55;;;;;;;;;;5038083;28;20585;-67
2022/05/04 00:38:09;;;;;;;5.05;1.60;;;;;;;;;;5038464;28;20079;-64
2022/05/04 00:40:36;;;;;;;3.90;1.20;;;;;;;;;;5019764;28;20635;-64
2022/05/04 00:43:03;;;;;;;5.93;1.25;;;;;;;;;;5037923;28;20096;-67
2022/05/04 00:45:31;;;;;;;3.83;1.30;;;;;;;;;;5038350;28;20083;-68
2022/05/04 00:47:57;;;;;;;5.72;1.27;;;;;;;;;;5034219;28;20045;-66
2022/05/04 00:50:24;;;;;;;7.63;1.20;;;;;;;;;;5036143;28;20071;-66
2022/05/04 00:52:51;;;;;;;4.03;1.10;;;;;;;;;;5038552;28;20044;-66
2022/05/04 00:55:20;;;;;;;5.07;1.05;;;;;;;;;;5037392;28;20056;-66
2022/05/04 01:00:32;;;;;;;12.63;1.45;;;;;;;;;;5035266;28;20111;-66
2022/05/04 01:02:59;;;;;;;4.25;1.13;;;;;;;;;;5038705;28;20037;-66
2022/05/04 01:05:26;;;;;;;4.53;1.40;;;;;;;;;;5036990;28;20033;-66
2022/05/04 01:07:52;;;;;;;3.90;1.23;;;;;;;;;;5012010;28;20045;-66
2022/05/04 01:10:19;;;;;;;5.85;1.25;;;;;;;;;;5036529;28;20033;-66
2022/05/04 01:12:53;;;;;;;9.13;1.20;;;;;;;;;;5020343;28;20045;-66
2022/05/04 01:15:20;;;;;;;5.03;1.10;;;;;;;;;;5037808;28;20049;-66
2022/05/04 01:17:51;;;;;;;7.45;1.10;;;;;;;;;;5038974;28;20041;-66
2022/05/04 01:20:18;;;;;;;4.90;1.10;;;;;;;;;;5038720;28;20044;-66
2022/05/04 01:22:45;;;;;;;3.58;1.15;;;;;;;;;;5020667;28;20044;-66
2022/05/04 01:25:12;;;;;;;4.72;1.00;;;;;;;;;;5039575;28;20048;-66
2022/05/04 01:27:39;;;;;;;4.28;1.13;;;;;;;;;;5038945;28;20041;-66
2022/05/04 01:30:08;;;;;;;3.28;1.00;;;;;;;;;;5037151;28;20044;-66
2022/05/04 01:32:35;;;;;;;4.20;1.00;;;;;;;;;;5036700;28;20041;-66
2022/05/04 01:35:01;;;;;;;5.75;1.20;;;;;;;;;;5037364;28;20156;-65
2022/05/04 01:37:28;;;;;;;4.30;0.90;;;;;;;;;;5036365;28;20095;-66
2022/05/04 01:39:55;;;;;;;5.38;1.30;;;;;;;;;;5021047;28;20118;-67
2022/05/04 01:42:24;;;;;;;4.43;1.08;;;;;;;;;;5039752;28;20391;-67
2022/05/04 01:44:51;;;;;;;5.93;1.25;;;;;;;;;;5041462;28;20041;-66
2022/05/04 01:47:18;;;;;;;4.72;1.10;;;;;;;;;;5042321;28;20040;-67
2022/05/04 01:49:44;;;;;;;4.65;1.40;;;;;;;;;;5041984;28;20078;-67
2022/05/04 01:52:11;;;;;;;5.50;1.20;;;;;;;;;;5043827;28;20123;-68
2022/05/04 01:54:38;;;;;;;5.40;1.73;;;;;;;;;;5042343;28;20056;-66
2022/05/04 01:57:05;;;;;;;3.78;1.30;;;;;;;;;;5043424;28;20095;-66
2022/05/04 01:59:31;;;;;;;5.68;1.10;;;;;;;;;;5041451;28;20033;-67
2022/05/04 02:01:59;;;;;;;8.77;1.20;;;;;;;;;;5042625;28;20064;-68
2022/05/04 02:04:25;;;;;;;8.18;1.42;;;;;;;;;;5041472;28;20040;-64
2022/05/04 02:06:52;;;;;;;6.75;1.17;;;;;;;;;;5043585;28;20047;-67
2022/05/04 02:09:19;;;;;;;6.47;1.45;;;;;;;;;;5042064;28;20120;-63
2022/05/04 02:11:46;;;;;;;12.98;2.67;;;;;;;;;;5041854;28;20037;-67
2022/05/04 02:14:13;;;;;;;11.27;1.80;;;;;;;;;;5043329;28;20041;-68
2022/05/04 02:16:39;;;;;;;8.10;1.73;;;;;;;;;;5042332;28;20064;-68
2022/05/04 02:19:06;;;;;;;5.68;1.40;;;;;;;;;;5035187;28;20043;-68
2022/05/04 02:21:33;;;;;;;7.95;1.63;;;;;;;;;;5041722;28;20049;-67
2022/05/04 02:24:00;;;;;;;5.97;1.55;;;;;;;;;;5043352;28;20053;-69
2022/05/04 02:26:26;;;;;;;6.80;1.40;;;;;;;;;;5043391;28;20045;-69
2022/05/04 02:28:53;;;;;;;4.13;1.38;;;;;;;;;;5042521;28;20048;-67
2022/05/04 02:31:20;;;;;;;7.90;1.40;;;;;;;;;;5044118;28;20033;-65
2022/05/04 02:33:47;;;;;;;7.07;1.45;;;;;;;;;;5043729;28;20440;-66
2022/05/04 02:39:00;;;;;;;4.63;1.50;;;;;;;;;;5041506;28;20089;-63
2022/05/04 02:41:27;;;;;;;10.07;1.75;;;;;;;;;;5040195;28;20047;-65
2022/05/04 02:43:54;;;;;;;5.90;1.13;;;;;;;;;;5041581;28;20033;-66
2022/05/04 02:46:23;;;;;;;4.25;1.30;;;;;;;;;;5040832;28;20037;-64
2022/05/04 02:48:49;;;;;;;11.48;1.70;;;;;;;;;;5039345;28;20125;-64
2022/05/04 02:51:16;;;;;;;9.35;1.48;;;;;;;;;;5021972;28;20044;-66
2022/05/04 02:53:43;;;;;;;5.18;1.27;;;;;;;;;;5038295;28;20063;-65
2022/05/04 02:56:11;;;;;;;7.00;1.17;;;;;;;;;;5040310;28;20589;-65
2022/05/04 02:58:38;;;;;;;6.93;1.63;;;;;;;;;;5039062;28;20041;-65
2022/05/04 03:02:26;;;;;;;7.65;1.83;;;;;;;;;;5039723;28;20501;-64
2022/05/04 03:03:55;;;;;;;6.35;1.75;;;;;;;;;;5039776;28;20041;-64
2022/05/04 03:06:22;;;;;;;8.15;1.63;;;;;;;;;;5040525;28;20812;-64
2022/05/04 03:08:49;;;;;;;5.85;1.50;;;;;;;;;;5040700;28;20041;-65
2022/05/04 03:14:01;;;;;;;20.40;4.57;;;;;;;;;;5036660;28;20520;-65
2022/05/04 03:16:27;;;;;;;9.10;3.03;;;;;;;;;;5038590;28;20516;-66
2022/05/04 03:18:54;;;;;;;7.03;2.40;;;;;;;;;;5039795;28;20628;-65
2022/05/04 03:21:21;;;;;;;10.98;2.53;;;;;;;;;;5037418;28;20060;-65
2022/05/04 03:23:52;;;;;;;6.90;2.10;;;;;;;;;;5024235;28;20496;-65
2022/05/04 03:26:19;;;;;;;12.20;2.42;;;;;;;;;;5019553;28;20041;-65
2022/05/04 03:28:46;;;;;;;6.93;1.60;;;;;;;;;;5019546;28;20048;-66
2022/05/04 03:31:13;;;;;;;7.35;2.00;;;;;;;;;;5018814;28;20084;-61
2022/05/04 03:33:40;;;;;;;14.63;2.67;;;;;;;;;;5021419;28;20073;-61
2022/05/04 03:36:06;;;;;;;23.17;3.55;;;;;;;;;;5023168;28;20107;-62
2022/05/04 03:38:34;;;;;;;31.20;3.15;;;;;;;;;;5022598;28;20042;-62
2022/05/04 03:41:00;;;;;;;18.60;2.72;;;;;;;;;;5021450;28;20477;-63
2022/05/04 03:43:27;;;;;;;11.73;2.17;;;;;;;;;;5020022;28;20037;-62
2022/05/04 03:45:54;;;;;;;2.20;0.75;;;;;;;;;;5017703;28;20052;-62
2022/05/04 03:48:21;;;;;;;5.10;0.98;;;;;;;;;;5003768;28;20251;-63
2022/05/04 03:50:48;;;;;;;5.93;1.17;;;;;;;;;;5021055;28;20038;-61
2022/05/04 03:53:15;;;;;;;4.05;1.00;;;;;;;;;;5021551;28;20043;-63
2022/05/04 03:55:41;;;;;;;3.75;1.00;;;;;;;;;;5020144;28;20038;-64
2022/05/04 03:58:08;;;;;;;6.60;0.95;;;;;;;;;;5021603;28;20049;-62
2022/05/04 04:00:35;;;;;;;3.75;0.90;;;;;;;;;;5020208;28;20671;-62
2022/05/04 04:03:01;;;;;;;4.93;1.13;;;;;;;;;;5022529;28;20092;-62
2022/05/04 04:05:29;;;;;;;3.05;0.90;;;;;;;;;;5020852;28;20040;-63
2022/05/04 04:07:56;;;;;;;4.90;1.13;;;;;;;;;;5022285;28;20549;-62
2022/05/04 04:10:22;;;;;;;2.40;0.70;;;;;;;;;;5019349;28;20128;-61
2022/05/04 04:12:49;;;;;;;5.00;0.90;;;;;;;;;;5021157;28;20798;-63
2022/05/04 04:15:16;;;;;;;5.25;0.90;;;;;;;;;;5022052;28;20040;-63
2022/05/04 04:17:42;;;;;;;2.85;0.85;;;;;;;;;;5020304;28;20426;-62
2022/05/04 04:22:55;;;;;;;4.15;1.20;;;;;;;;;;5025068;28;20048;-62
2022/05/04 04:25:21;;;;;;;4.40;0.90;;;;;;;;;;5037091;28;20092;-63
2022/05/04 04:27:48;;;;;;;6.13;1.40;;;;;;;;;;5020098;28;21967;-61
2022/05/04 04:30:15;;;;;;;3.67;0.80;;;;;;;;;;5037122;28;20056;-62
2022/05/04 04:32:41;;;;;;;2.78;0.85;;;;;;;;;;5037822;28;20048;-63
2022/05/04 04:35:09;;;;;;;4.18;0.90;;;;;;;;;;5037410;28;20044;-62
2022/05/04 04:37:35;;;;;;;3.60;0.90;;;;;;;;;;5036972;28;20044;-63
2022/05/04 04:40:02;;;;;;;4.00;0.95;;;;;;;;;;5037704;28;20037;-63
2022/05/04 04:42:29;;;;;;;5.45;0.90;;;;;;;;;;5037245;28;20049;-61
2022/05/04 04:44:55;;;;;;;3.40;1.00;;;;;;;;;;5038300;28;20041;-61
2022/05/04 04:47:22;;;;;;;5.25;0.90;;;;;;;;;;5036850;28;20044;-62
2022/05/04 04:49:48;;;;;;;3.08;0.88;;;;;;;;;;5018711;28;20032;-62
2022/05/04 04:52:15;;;;;;;3.35;0.90;;;;;;;;;;5038925;28;20037;-62
2022/05/04 04:54:43;;;;;;;2.33;0.77;;;;;;;;;;5037184;28;20045;-61
2022/05/04 04:57:10;;;;;;;2.67;1.00;;;;;;;;;;5038186;28;20579;-62
2022/05/04 04:59:37;;;;;;;5.53;1.00;;;;;;;;;;5035912;28;20045;-60
2022/05/04 05:02:04;;;;;;;5.10;1.00;;;;;;;;;;5037501;28;20140;-61
2022/05/04 05:04:30;;;;;;;4.63;0.80;;;;;;;;;;5036856;28;20040;-62
2022/05/04 05:06:57;;;;;;;6.70;1.27;;;;;;;;;;5037009;28;20037;-60
2022/05/04 05:09:24;;;;;;;2.85;0.88;;;;;;;;;;5036297;28;20486;-61
2022/05/04 05:11:50;;;;;;;2.33;0.80;;;;;;;;;;5038254;28;20095;-62
2022/05/04 05:17:02;;;;;;;2.35;0.73;;;;;;;;;;5036671;28;20467;-63
2022/05/04 05:19:29;;;;;;;3.78;0.90;;;;;;;;;;5034992;28;20746;-61
2022/05/04 05:21:55;;;;;;;3.63;1.02;;;;;;;;;;5036752;28;20512;-61
2022/05/04 05:24:22;;;;;;;4.38;0.82;;;;;;;;;;5037088;28;20045;-61
2022/05/04 05:26:48;;;;;;;3.70;0.77;;;;;;;;;;5038142;28;20033;-61
2022/05/04 05:29:15;;;;;;;2.55;0.75;;;;;;;;;;5038031;28;20678;-61
2022/05/04 05:31:42;;;;;;;4.03;1.00;;;;;;;;;;5037000;28;20048;-61
2022/05/04 05:34:08;;;;;;;4.85;0.75;;;;;;;;;;5037489;28;20477;-62
2022/05/04 05:36:36;;;;;;;6.15;0.98;;;;;;;;;;5036301;28;20392;-61
2022/05/04 05:39:03;;;;;;;3.28;0.93;;;;;;;;;;5037679;28;20041;-61
2022/05/04 05:41:29;;;;;;;4.88;0.80;;;;;;;;;;5035990;28;20132;-61
2022/05/04 05:43:56;;;;;;;3.92;0.90;;;;;;;;;;5037735;28;20049;-61
2022/05/04 05:46:23;;;;;;;3.47;0.90;;;;;;;;;;5037592;28;20041;-61
2022/05/04 05:48:49;;;;;;;4.18;0.90;;;;;;;;;;5038153;28;20120;-60
2022/05/04 05:51:16;;;;;;;4.80;0.95;;;;;;;;;;5037873;28;20290;-59
2022/05/04 05:53:43;;;;;;;4.45;0.90;;;;;;;;;;5036733;28;20517;-59
2022/05/04 05:56:09;;;;;;;3.30;1.17;;;;;;;;;;5036879;28;20112;-60
2022/05/04 05:58:36;;;;;;;2.83;0.85;;;;;;;;;;5036772;28;20134;-60
2022/05/04 06:01:03;;;;;;;6.45;1.00;;;;;;;;;;5035884;28;20041;-61
2022/05/04 06:03:30;;;;;;;3.15;0.80;;;;;;;;;;5037768;28;20049;-61
2022/05/04 06:05:57;;;;;;;5.13;0.90;;;;;;;;;;5036762;28;20051;-62
2022/05/04 06:08:23;;;;;;;4.18;0.90;;;;;;;;;;5037215;28;20055;-61
2022/05/04 06:10:50;;;;;;;3.28;0.90;;;;;;;;;;5036544;28;20041;-61
2022/05/04 06:13:18;;;;;;;3.72;1.20;;;;;;;;;;5037308;28;20041;-61
2022/05/04 06:15:45;;;;;;;4.90;0.80;;;;;;;;;;5037388;28;20080;-61
2022/05/04 06:18:12;;;;;;;3.95;1.10;;;;;;;;;;5039219;28;20048;-61
2022/05/04 06:20:39;;;;;;;2.95;0.88;;;;;;;;;;5038217;28;20053;-60
2022/05/04 06:23:06;;;;;;;4.38;1.10;;;;;;;;;;5031382;28;20131;-60
2022/05/04 06:25:33;;;;;;;7.57;1.00;;;;;;;;;;5019500;28;20056;-60
2022/05/04 06:28:00;;;;;;;2.08;0.68;;;;;;;;;;5021954;28;20041;-61
2022/05/04 06:35:57;;;;;;;6.20;1.17;;;;;;;;;;5022130;28;20056;-61
2022/05/04 06:38:24;;;;;;;6.05;0.95;;;;;;;;;;5022303;28;20494;-61
2022/05/04 06:40:50;;;;;;;2.83;0.95;;;;;;;;;;5022884;28;20344;-61
2022/05/04 06:43:17;;;;;;;3.45;0.95;;;;;;;;;;5025485;28;20454;-61
2022/05/04 06:45:44;;;;;;;5.07;0.98;;;;;;;;;;5024992;28;20033;-60
2022/05/04 06:48:11;;;;;;;3.35;0.90;;;;;;;;;;5022561;28;20033;-61
2022/05/04 06:50:38;;;;;;;4.43;1.00;;;;;;;;;;5022799;28;20069;-60
2022/05/04 06:53:05;;;;;;;6.03;1.27;;;;;;;;;;5022786;28;20047;-61
2022/05/04 06:55:31;;;;;;;5.20;1.05;;;;;;;;;;5022272;28;20034;-61
2022/05/04 06:57:58;;;;;;;3.65;1.13;;;;;;;;;;5023623;28;20064;-61
2022/05/04 07:00:25;;;;;;;4.05;0.93;;;;;;;;;;5020901;28;20775;-61
2022/05/04 07:02:51;;;;;;;4.20;1.00;;;;;;;;;;5021801;28;20101;-61
2022/05/04 07:05:18;;;;;;;4.35;1.10;;;;;;;;;;5023352;28;20520;-60
2022/05/04 07:07:45;;;;;;;3.08;0.70;;;;;;;;;;5021792;28;20037;-61
2022/05/04 07:10:12;;;;;;;3.65;0.90;;;;;;;;;;5023413;28;20540;-61
2022/05/04 07:12:38;;;;;;;2.83;0.80;;;;;;;;;;5022184;28;20045;-61
2022/05/04 07:15:05;;;;;;;2.95;0.90;;;;;;;;;;5023390;28;20052;-61
2022/05/04 07:17:32;;;;;;;2.67;0.90;;;;;;;;;;5022599;28;20045;-62
2022/05/04 07:19:59;;;;;;;2.60;0.88;;;;;;;;;;5020688;28;20125;-61
2022/05/04 07:22:26;;;;;;;3.15;0.77;;;;;;;;;;5023332;28;21749;-62
2022/05/04 07:24:53;;;;;;;2.50;0.90;;;;;;;;;;5041824;28;20036;-62
2022/05/04 07:27:20;;;;;;;5.78;1.05;;;;;;;;;;5039586;28;20108;-62
2022/05/04 07:29:47;;;;;;;2.83;0.80;;;;;;;;;;5040501;28;20072;-62
2022/05/04 07:32:14;;;;;;;12.98;1.30;;;;;;;;;;5041897;28;20603;-62
2022/05/04 07:34:41;;;;;;;3.45;0.88;;;;;;;;;;5040854;28;20056;-62
2022/05/04 07:37:08;;;;;;;4.18;0.88;;;;;;;;;;5041939;28;20398;-61
2022/05/04 07:42:26;;;;;;;2.80;0.82;;;;;;;;;;5041082;28;20056;-61
2022/05/04 07:45:00;;;;;;;3.53;0.70;;;;;;;;;;5042334;28;20037;-62
2022/05/04 07:47:27;;;;;;;3.30;0.77;;;;;;;;;;5042190;28;20045;-61
2022/05/04 07:49:54;;;;;;;3.83;0.98;;;;;;;;;;5041290;28;20056;-63
2022/05/04 07:52:21;;;;;;;2.40;0.75;;;;;;;;;;5042577;28;20037;-62
2022/05/04 07:54:48;;;;;;;3.40;1.00;;;;;;;;;;5043134;28;20043;-62
2022/05/04 07:57:15;;;;;;;2.65;0.73;;;;;;;;;;5042908;28;20366;-62
2022/05/04 07:59:42;;;;;;;6.43;0.80;;;;;;;;;;5042155;28;20048;-64
2022/05/04 08:04:54;;;;;;;4.85;0.90;;;;;;;;;;5043520;28;20132;-62
2022/05/04 08:07:21;;;;;;;2.30;0.70;;;;;;;;;;5041753;28;20051;-62
2022/05/04 08:09:47;;;;;;;3.78;0.90;;;;;;;;;;5040546;28;20037;-62
2022/05/04 08:12:14;;;;;;;2.85;0.80;;;;;;;;;;5042863;28;20041;-63
2022/05/04 08:14:41;;;;;;;2.97;0.70;;;;;;;;;;5040813;28;20809;-63
2022/05/04 08:17:08;;;;;;;2.92;0.70;;;;;;;;;;5042829;28;20079;-63
2022/05/04 08:19:35;;;;;;;3.67;0.73;;;;;;;;;;5039811;28;20063;-63
2022/05/04 08:22:02;;;;;;;4.82;0.90;;;;;;;;;;5040018;28;20052;-62
2022/05/04 08:24:28;;;;;;;2.30;0.55;;;;;;;;;;5038003;28;20151;-62
2022/05/04 08:26:55;;;;;;;3.95;0.80;;;;;;;;;;5039005;28;20069;-62
2022/05/04 08:29:22;;;;;;;6.03;0.77;;;;;;;;;;5036812;28;20033;-62
2022/05/04 08:31:49;;;;;;;2.80;0.70;;;;;;;;;;5020084;28;20041;-62
2022/05/04 08:34:15;;;;;;;2.60;0.70;;;;;;;;;;5040810;28;20116;-61
2022/05/04 08:36:42;;;;;;;2.38;0.75;;;;;;;;;;5040534;28;20647;-61
2022/05/04 08:39:09;;;;;;;2.60;0.70;;;;;;;;;;5038500;28;20036;-61
2022/05/04 08:41:39;;;;;;;2.65;0.70;;;;;;;;;;5037431;28;20743;-61
2022/05/04 08:44:08;;;;;;;5.20;0.80;;;;;;;;;;5038159;28;20040;-60
2022/05/04 08:46:38;;;;;;;2.47;0.73;;;;;;;;;;5036204;28;20040;-62
2022/05/04 08:49:05;;;;;;;2.03;0.60;;;;;;;;;;5036894;28;20497;-62
2022/05/04 08:51:33;;;;;;;6.20;0.60;;;;;;;;;;5036731;28;20151;-62
2022/05/04 08:53:59;;;;;;;2.13;0.63;;;;;;;;;;5019540;28;20083;-62
2022/05/04 08:56:26;;;;;;;3.13;0.70;;;;;;;;;;5036923;28;20048;-61
2022/05/04 08:58:53;;;;;;;3.25;0.70;;;;;;;;;;5038594;28;20037;-61
2022/05/04 09:01:20;;;;;;;2.83;0.85;;;;;;;;;;5036814;28;20470;-61
2022/05/04 09:03:47;;;;;;;2.33;0.68;;;;;;;;;;5038578;28;20049;-61
2022/05/04 09:06:25;;;;;;;2.75;0.80;;;;;;;;;;5039079;28;20669;-62
2022/05/04 09:08:54;;;;;;;4.95;0.90;;;;;;;;;;5038477;28;20091;-62
2022/05/04 09:11:22;;;;;;;3.95;0.90;;;;;;;;;;5036438;28;20121;-62
2022/05/04 09:13:49;;;;;;;5.30;0.98;;;;;;;;;;5039109;28;20040;-62
2022/05/04 09:16:45;;;;;;;3.65;0.73;;;;;;;;;;5041658;28;20494;-62
2022/05/04 09:19:15;;;;;;;3.03;0.75;;;;;;;;;;5014310;28;20116;-62
2022/05/04 09:21:42;;;;;;;2.80;0.70;;;;;;;;;;5039099;28;20041;-62
2022/05/04 09:24:09;;;;;;;3.00;0.75;;;;;;;;;;5039819;28;20567;-62
2022/05/04 09:26:43;;;;;;;2.13;0.73;;;;;;;;;;5038246;28;20044;-63
2022/05/04 09:29:11;;;;;;;2.85;0.90;;;;;;;;;;5020415;28;20041;-61
2022/05/04 09:31:40;;;;;;;3.00;0.85;;;;;;;;;;5036586;28;20088;-62
2022/05/04 09:34:10;;;;;;;3.40;0.75;;;;;;;;;;5036451;28;20052;-62
2022/05/04 09:36:38;;;;;;;2.42;0.70;;;;;;;;;;5036292;28;20052;-63
2022/05/04 09:45:12;;;;;;;3.72;0.90;;;;;;;;;;5036014;28;20047;-61
2022/05/04 09:47:40;;;;;;;9.82;1.08;;;;;;;;;;5018367;28;20048;-63
2022/05/04 09:50:09;;;;;;;5.85;0.90;;;;;;;;;;5035364;28;20041;-62
2022/05/04 09:52:49;;;;;;;7.40;0.90;;;;;;;;;;5000159;28;20037;-63
2022/05/04 09:55:24;;;;;;;5.45;1.10;;;;;;;;;;5016595;28;20044;-63
2022/05/04 09:57:51;;;;;;;3.60;0.90;;;;;;;;;;5038300;28;20118;-62
2022/05/04 10:00:21;;;;;;;5.68;1.02;;;;;;;;;;5020809;28;20114;-61
2022/05/04 10:02:49;;;;;;;3.70;1.00;;;;;;;;;;5044523;28;20133;-61
2022/05/04 10:05:16;;;;;;;2.17;0.70;;;;;;;;;;5044258;28;20029;-61
2022/05/04 10:07:43;;;;;;;4.78;0.75;;;;;;;;;;5040769;28;20037;-61
2022/05/04 10:10:11;;;;;;;2.65;0.75;;;;;;;;;;5039716;28;20144;-61
2022/05/04 10:12:42;;;;;;;2.85;0.80;;;;;;;;;;5042375;28;20052;-61
2022/05/04 10:15:10;;;;;;;2.47;0.80;;;;;;;;;;5045488;28;20045;-60
2022/05/04 10:17:58;;;;;;;2.17;0.77;;;;;;;;;;5043813;28;20041;-60
2022/05/04 10:20:30;;;;;;;4.80;0.90;;;;;;;;;;5023647;28;20060;-62
2022/05/04 10:22:57;;;;;;;4.93;0.93;;;;;;;;;;5025735;28;20088;-61
2022/05/04 10:25:26;;;;;;;5.80;0.90;;;;;;;;;;5042234;28;20033;-61
2022/05/04 10:28:03;;;;;;;3.03;0.80;;;;;;;;;;5041191;28;20044;-61
2022/05/04 10:30:30;;;;;;;5.50;1.00;;;;;;;;;;5043993;28;20037;-61
2022/05/04 10:33:08;;;;;;;6.97;1.05;;;;;;;;;;5042205;28;20041;-61
2022/05/04 10:35:38;;;;;;;3.15;1.10;;;;;;;;;;5043183;28;20040;-60
2022/05/04 10:38:11;;;;;;;2.83;0.82;;;;;;;;;;5045637;28;20056;-61
2022/05/04 10:40:38;;;;;;;5.13;0.95;;;;;;;;;;5043738;28;20049;-60
2022/05/04 10:43:04;;;;;;;2.85;0.90;;;;;;;;;;5044942;28;20125;-62
2022/05/04 10:45:38;;;;;;;3.13;1.00;;;;;;;;;;5043947;28;20521;-60
2022/05/04 10:48:11;;;;;;;4.63;1.00;;;;;;;;;;5042720;28;20037;-60
2022/05/04 10:51:10;;;;;;;9.37;1.20;;;;;;;;;;5039793;28;20044;-61
2022/05/04 10:53:38;;;;;;;7.50;1.00;;;;;;;;;;5007353;28;20328;-62
2022/05/04 10:56:08;;;;;;;3.92;0.90;;;;;;;;;;5040959;28;20905;-62
2022/05/04 10:58:37;;;;;;;9.65;1.55;;;;;;;;;;5038445;28;20060;-60
2022/05/04 11:01:12;;;;;;;7.43;1.25;;;;;;;;;;5039590;28;20049;-61
2022/05/04 11:03:49;;;;;;;4.90;1.13;;;;;;;;;;5040346;28;20048;-62
2022/05/04 11:06:24;;;;;;;4.15;1.00;;;;;;;;;;5039476;28;20056;-62
2022/05/04 11:08:52;;;;;;;4.03;1.20;;;;;;;;;;5038296;28;20040;-61
2022/05/04 11:11:22;;;;;;;2.85;1.08;;;;;;;;;;5039875;28;20041;-61
2022/05/04 11:13:49;;;;;;;5.32;1.17;;;;;;;;;;5038652;28;20053;-62
2022/05/04 11:16:16;;;;;;;3.80;1.10;;;;;;;;;;5040115;28;20033;-62
2022/05/04 11:18:43;;;;;;;6.82;1.20;;;;;;;;;;5040402;28;20821;-62
2022/05/04 11:21:13;;;;;;;3.25;0.95;;;;;;;;;;5041114;28;20437;-62
2022/05/04 11:23:40;;;;;;;3.60;0.82;;;;;;;;;;5041801;28;20053;-62
2022/05/04 11:26:07;;;;;;;5.82;1.00;;;;;;;;;;5041679;28;20626;-61
2022/05/04 11:28:35;;;;;;;5.18;1.17;;;;;;;;;;5040647;28;20522;-61
2022/05/04 11:31:02;;;;;;;4.22;1.17;;;;;;;;;;5041665;28;20045;-60
2022/05/04 11:33:28;;;;;;;6.07;1.15;;;;;;;;;;5041629;28;20093;-61
2022/05/04 11:35:55;;;;;;;5.97;1.23;;;;;;;;;;5043626;28;20060;-60
2022/05/04 11:38:22;;;;;;;5.95;1.33;;;;;;;;;;5041185;28;20143;-62
2022/05/04 11:40:50;;;;;;;11.30;1.48;;;;;;;;;;5041125;28;20292;-61
2022/05/04 11:43:24;;;;;;;5.72;1.48;;;;;;;;;;5043351;28;20611;-61
2022/05/04 11:45:51;;;;;;;7.00;1.40;;;;;;;;;;5036684;28;20068;-61
2022/05/04 11:48:21;;;;;;;6.35;1.67;;;;;;;;;;5040723;28;20201;-61
2022/05/04 11:50:48;;;;;;;7.10;1.40;;;;;;;;;;5039276;28;20477;-60
2022/05/04 11:53:15;;;;;;;9.63;1.58;;;;;;;;;;5022186;28;20041;-60
2022/05/04 11:55:42;;;;;;;6.55;1.30;;;;;;;;;;5040097;28;20107;-60
2022/05/04 11:58:10;;;;;;;8.20;1.40;;;;;;;;;;5041891;28;20057;-62
2022/05/04 12:00:37;;;;;;;7.65;1.52;;;;;;;;;;5041150;28;20056;-61
2022/05/04 12:03:05;;;;;;;6.80;1.70;;;;;;;;;;5042430;28;20051;-60
2022/05/04 12:05:33;;;;;;;11.70;1.70;;;;;;;;;;5042107;28;20041;-61
2022/05/04 12:08:06;;;;;;;6.82;1.45;;;;;;;;;;5041324;28;20041;-62
2022/05/04 12:10:34;;;;;;;8.27;1.60;;;;;;;;;;5042193;28;20525;-61
2022/05/04 12:13:02;;;;;;;7.75;1.60;;;;;;;;;;5043894;28;20350;-62
2022/05/04 12:15:29;;;;;;;7.13;1.40;;;;;;;;;;5038801;28;20341;-62
2022/05/04 12:18:00;;;;;;;9.50;1.80;;;;;;;;;;5040072;28;20183;-62
2022/05/04 12:20:28;;;;;;;8.98;1.45;;;;;;;;;;5037365;28;20052;-66
2022/05/04 12:22:55;;;;;;;6.78;2.00;;;;;;;;;;5040142;28;20043;-64
2022/05/04 12:25:25;;;;;;;7.90;1.67;;;;;;;;;;5022639;28;20091;-61
2022/05/04 12:27:54;;;;;;;6.43;1.17;;;;;;;;;;5041473;28;20061;-62
2022/05/04 12:33:11;;;;;;;9.05;1.58;;;;;;;;;;5043898;28;20101;-61
2022/05/04 12:35:43;;;;;;;4.70;1.50;;;;;;;;;;5042962;28;20397;-62
2022/05/04 12:38:11;;;;;;;9.32;1.70;;;;;;;;;;5026372;28;20045;-62
2022/05/04 12:40:38;;;;;;;8.05;2.00;;;;;;;;;;5040253;28;20045;-62
2022/05/04 12:43:05;;;;;;;7.80;1.67;;;;;;;;;;5042688;28;20040;-62
2022/05/04 12:45:34;;;;;;;6.32;1.67;;;;;;;;;;5041579;28;20040;-62
2022/05/04 12:48:01;;;;;;;7.63;1.52;;;;;;;;;;5044461;28;20041;-66
2022/05/04 12:50:29;;;;;;;13.63;2.13;;;;;;;;;;5040190;28;20049;-64
2022/05/04 12:52:57;;;;;;;13.25;2.15;;;;;;;;;;5042024;28;20553;-62
2022/05/04 12:58:09;;;;;;;16.25;2.13;;;;;;;;;;5041066;28;20306;-63
2022/05/04 13:00:36;;;;;;;9.80;1.50;;;;;;;;;;5040189;28;20114;-63
2022/05/04 13:03:07;;;;;;;7.10;1.60;;;;;;;;;;5039322;28;20605;-63
2022/05/04 13:05:34;;;;;;;13.77;1.50;;;;;;;;;;5037108;28;20045;-63
2022/05/04 13:08:01;;;;;;;8.52;1.70;;;;;;;;;;5037349;28;20071;-63
2022/05/04 13:10:27;;;;;;;8.85;1.75;;;;;;;;;;5037265;28;20041;-60
2022/05/04 13:12:54;;;;;;;6.20;1.38;;;;;;;;;;5039037;28;20044;-62
2022/05/04 13:15:21;;;;;;;6.32;1.45;;;;;;;;;;5037377;28;20047;-61
2022/05/04 13:17:47;;;;;;;8.27;1.55;;;;;;;;;;5037766;28;20055;-61
2022/05/04 13:20:14;;;;;;;12.07;2.00;;;;;;;;;;5037708;28;20429;-61
2022/05/04 13:22:41;;;;;;;7.20;1.65;;;;;;;;;;5036853;28;20674;-60
2022/05/04 13:25:10;;;;;;;11.98;1.58;;;;;;;;;;5038281;28;20048;-60
2022/05/04 13:27:37;;;;;;;8.48;1.45;;;;;;;;;;5020401;28;20421;-61
2022/05/04 13:30:05;;;;;;;5.85;1.50;;;;;;;;;;5041462;28;20059;-61
2022/05/04 13:32:31;;;;;;;8.10;1.30;;;;;;;;;;5043509;28;20924;-62
2022/05/04 13:34:58;;;;;;;7.10;1.40;;;;;;;;;;5044591;28;20365;-61
2022/05/04 13:37:25;;;;;;;7.38;1.83;;;;;;;;;;5044692;28;20041;-63
2022/05/04 13:39:52;;;;;;;4.70;1.20;;;;;;;;;;5040962;28;20029;-59
2022/05/04 13:42:18;;;;;;;7.05;1.52;;;;;;;;;;5041524;28;20502;-61
2022/05/04 13:44:45;;;;;;;8.27;1.40;;;;;;;;;;5041616;28;20044;-62
2022/05/04 13:47:12;;;;;;;7.80;1.60;;;;;;;;;;5042359;28;20044;-62
2022/05/04 13:49:39;;;;;;;6.38;1.10;;;;;;;;;;5042418;28;20051;-65
2022/05/04 13:54:50;;;;;;;6.70;1.42;;;;;;;;;;5048104;28;20055;-61
2022/05/04 13:57:17;;;;;;;5.55;1.50;;;;;;;;;;5047716;28;20057;-61
2022/05/04 13:59:45;;;;;;;5.72;1.30;;;;;;;;;;5047094;28;20076;-62
2022/05/04 14:02:12;;;;;;;8.45;1.58;;;;;;;;;;5048551;28;20041;-61
2022/05/04 14:04:38;;;;;;;12.30;1.95;;;;;;;;;;5046799;28;20037;-61
2022/05/04 14:07:05;;;;;;;5.70;1.23;;;;;;;;;;5045330;28;20401;-61
2022/05/04 14:09:32;;;;;;;10.10;1.67;;;;;;;;;;5042055;28;20033;-61
2022/05/04 14:12:03;;;;;;;10.65;1.48;;;;;;;;;;5044544;28;20076;-62
2022/05/04 14:17:14;;;;;;;7.25;1.48;;;;;;;;;;5046189;28;20099;-62
2022/05/04 14:19:41;;;;;;;3.83;1.30;;;;;;;;;;5046612;28;20053;-62
2022/05/04 14:22:08;;;;;;;15.27;1.70;;;;;;;;;;5047252;28;20137;-61
2022/05/04 14:24:35;;;;;;;12.00;2.15;;;;;;;;;;5044280;28;20041;-61
2022/05/04 14:27:01;;;;;;;12.98;1.95;;;;;;;;;;5042916;28;20037;-61
2022/05/04 14:29:28;;;;;;;11.15;1.95;;;;;;;;;;5041517;28;20136;-62
2022/05/04 14:31:55;;;;;;;17.60;2.55;;;;;;;;;;5044123;28;20036;-61
2022/05/04 14:34:21;;;;;;;21.60;2.38;;;;;;;;;;5045662;28;20532;-61
2022/05/04 14:36:48;;;;;;;8.48;1.92;;;;;;;;;;5046693;28;20095;-61
2022/05/04 14:39:15;;;;;;;17.08;2.13;;;;;;;;;;5041237;28;20055;-62
2022/05/04 14:41:42;;;;;;;19.02;2.15;;;;;;;;;;5044362;28;20056;-61
2022/05/04 14:44:09;;;;;;;8.75;1.70;;;;;;;;;;5046859;28;20065;-61
2022/05/04 14:46:35;;;;;;;10.98;2.10;;;;;;;;;;5043726;28;20045;-61
2022/05/04 14:49:02;;;;;;;15.07;2.03;;;;;;;;;;5043209;28;20040;-63
2022/05/04 14:51:29;;;;;;;13.70;2.28;;;;;;;;;;5044862;28;20063;-62
2022/05/04 14:53:55;;;;;;;10.63;2.05;;;;;;;;;;5045912;28;20044;-62
2022/05/04 14:56:22;;;;;;;12.52;2.15;;;;;;;;;;5044856;28;20033;-62
2022/05/04 14:58:49;;;;;;;14.57;2.00;;;;;;;;;;5042553;28;20041;-62
2022/05/04 15:01:16;;;;;;;14.20;1.90;;;;;;;;;;5045919;28;20056;-63
2022/05/04 15:06:28;;;;;;;6.40;1.83;;;;;;;;;;5037102;28;20063;-65
2022/05/04 15:08:55;;;;;;;11.38;2.03;;;;;;;;;;5040381;28;20856;-63
2022/05/04 15:11:22;;;;;;;10.73;2.22;;;;;;;;;;5040241;28;20079;-64
2022/05/04 15:13:49;;;;;;;11.48;2.05;;;;;;;;;;5039756;28;20114;-65
2022/05/04 15:16:15;;;;;;;8.07;2.00;;;;;;;;;;5040448;28;20044;-64
2022/05/04 15:18:42;;;;;;;6.82;2.22;;;;;;;;;;5039716;28;20037;-64
2022/05/04 15:21:09;;;;;;;17.42;2.70;;;;;;;;;;5038770;28;20041;-64
2022/05/04 15:23:35;;;;;;;11.93;1.95;;;;;;;;;;5027335;28;20041;-63
2022/05/04 15:26:02;;;;;;;16.23;2.00;;;;;;;;;;5024459;28;20101;-65
2022/05/04 15:28:30;;;;;;;12.40;1.85;;;;;;;;;;5039278;28;20041;-63